createdAt,value
2022-11-21T00:01:40.237Z,100156.81
2022-11-21T00:04:18.995Z,100146.65
2022-11-21T00:06:58.890Z,100132.17
2022-11-21T00:09:37.817Z,100132.56
2022-11-21T00:12:17.652Z,100121.55
2022-11-21T00:14:56.093Z,100114.48
2022-11-21T00:17:36.360Z,100106.34
2022-11-21T00:20:15.232Z,100113.94
2022-11-21T00:22:53.118Z,100121.69
2022-11-21T00:25:32.956Z,100119.47
2022-11-21T00:28:08.948Z,100118.58
2022-11-21T00:30:48.613Z,100117.40
2022-11-21T00:33:30.725Z,100107.73
2022-11-21T00:36:13.647Z,100106.55
2022-11-21T00:38:52.543Z,100136.58
2022-11-21T00:41:32.027Z,100118.99
2022-11-21T00:44:09.320Z,100098.45
2022-11-21T00:46:51.212Z,100070.98
2022-11-21T00:49:30.095Z,100067.19
2022-11-21T00:52:09.563Z,100061.39
2022-11-21T00:54:49.889Z,100055.06
2022-11-21T00:57:26.780Z,100047.02
2022-11-21T01:00:06.682Z,100026.79
2022-11-21T01:02:46.584Z,100027.64
2022-11-21T01:05:29.349Z,100017.41
2022-11-21T01:08:08.451Z,100009.97
2022-11-21T01:10:47.336Z,99998.06
2022-11-21T01:13:26.240Z,99985.13
2022-11-21T01:16:12.214Z,99974.34
2022-11-21T01:18:53.152Z,99973.14
2022-11-21T01:21:31.045Z,99966.98
2022-11-21T01:24:09.970Z,99965.69
2022-11-21T01:26:50.958Z,99964.88
2022-11-21T01:29:31.135Z,99962.36
2022-11-21T01:32:09.679Z,99959.67
2022-11-21T01:34:49.543Z,99947.23
2022-11-21T01:37:24.468Z,99940.56
2022-11-21T01:40:01.682Z,99934.65
2022-11-21T01:43:01.368Z,99927.23
2022-11-21T01:46:10.726Z,99913.05
2022-11-21T01:48:52.764Z,99899.43
2022-11-21T01:51:35.997Z,99899.95
2022-11-21T01:54:22.586Z,99889.11
2022-11-21T01:57:08.054Z,99886.25
2022-11-21T01:59:53.071Z,99889.68
2022-11-21T02:02:33.795Z,99879.90
2022-11-21T02:05:18.381Z,99873.02
2022-11-21T02:07:55.115Z,99867.11
2022-11-21T02:10:36.023Z,99863.77
2022-11-21T02:13:16.145Z,99853.23
2022-11-21T02:15:55.187Z,99851.75
2022-11-21T02:18:36.220Z,99862.77
2022-11-21T02:21:17.821Z,99863.56
2022-11-21T02:24:00.194Z,99858.95
2022-11-21T02:26:39.264Z,99855.06
2022-11-21T02:29:18.249Z,99855.89
2022-11-21T02:31:59.237Z,99873.35
2022-11-21T02:34:36.167Z,99920.58
2022-11-21T02:37:13.086Z,99984.46
2022-11-21T02:39:48.998Z,99998.88
2022-11-21T02:42:34.494Z,99967.06
2022-11-21T02:45:20.856Z,99903.45
2022-11-21T02:48:03.601Z,99897.34
2022-11-21T02:50:42.655Z,99935.03
2022-11-21T02:53:23.529Z,99952.52
2022-11-21T02:56:00.379Z,99921.45
2022-11-21T02:58:41.847Z,99878.31
2022-11-21T03:01:17.152Z,99873.75
2022-11-21T03:03:56.988Z,99884.98
2022-11-21T03:06:31.832Z,99893.84
2022-11-21T03:09:16.318Z,99877.61
2022-11-21T03:11:51.568Z,99867.11
2022-11-21T03:14:32.437Z,99856.55
2022-11-21T03:17:07.278Z,99832.20
2022-11-21T03:19:49.115Z,99815.11
2022-11-21T03:22:28.044Z,99796.88
2022-11-21T03:25:12.538Z,99791.41
2022-11-21T03:27:46.841Z,99796.50
2022-11-21T03:30:25.732Z,99798.89
2022-11-21T03:33:00.598Z,99785.18
2022-11-21T03:35:40.496Z,99775.31
2022-11-21T03:38:16.376Z,99766.58
2022-11-21T03:40:56.286Z,99754.92
2022-11-21T03:43:32.176Z,99744.75
2022-11-21T03:46:14.684Z,99744.55
2022-11-21T03:48:50.080Z,99730.24
2022-11-21T03:51:30.903Z,99721.45
2022-11-21T03:54:10.234Z,99712.42
2022-11-21T03:56:51.294Z,99692.39
2022-11-21T03:59:31.808Z,99671.48
2022-11-21T04:02:13.784Z,99657.30
2022-11-21T04:04:50.751Z,99664.53
2022-11-21T04:07:32.807Z,99662.68
2022-11-21T04:10:11.700Z,99661.02
2022-11-21T04:12:48.637Z,99646.27
2022-11-21T04:15:26.605Z,99632.77
2022-11-21T04:18:05.566Z,99641.13
2022-11-21T04:20:43.521Z,99644.25
2022-11-21T04:23:20.025Z,99635.20
2022-11-21T04:25:57.289Z,99633.86
2022-11-21T04:28:38.409Z,99629.20
2022-11-21T04:31:13.571Z,99606.21
2022-11-21T04:33:54.450Z,99607.27
2022-11-21T04:36:37.522Z,99606.36
2022-11-21T04:39:17.469Z,99607.90
2022-11-21T04:41:57.521Z,99609.47
2022-11-21T04:44:37.564Z,99622.51
2022-11-21T04:47:16.428Z,99625.39
2022-11-21T04:49:58.595Z,99618.04
2022-11-21T04:52:42.205Z,99625.62
2022-11-21T04:55:19.624Z,99626.04
2022-11-21T04:58:03.228Z,99612.26
2022-11-21T05:00:39.646Z,99664.89
2022-11-21T05:03:19.513Z,99883.49
2022-11-21T05:05:59.616Z,99831.36
2022-11-21T05:08:36.596Z,99783.75
2022-11-21T05:11:32.789Z,99905.23
2022-11-21T05:14:10.587Z,99807.33
2022-11-21T05:16:48.613Z,99747.18
2022-11-21T05:19:25.466Z,99772.84
2022-11-21T05:22:02.503Z,99786.08
2022-11-21T05:24:40.184Z,99761.65
2022-11-21T05:27:20.988Z,99744.30
2022-11-21T05:30:01.830Z,99715.30
2022-11-21T05:32:39.144Z,99694.27
2022-11-21T05:35:18.931Z,99719.45
2022-11-21T05:38:02.975Z,99739.96
2022-11-21T05:40:39.855Z,99743.62
2022-11-21T05:43:38.812Z,99748.70
2022-11-21T05:46:21.313Z,99725.05
2022-11-21T05:48:59.598Z,99691.13
2022-11-21T05:51:35.457Z,99664.64
2022-11-21T05:54:19.365Z,99633.09
2022-11-21T05:56:59.260Z,99639.98
2022-11-21T05:59:39.138Z,99640.13
2022-11-21T06:02:35.080Z,99622.89
2022-11-21T06:05:14.001Z,99633.22
2022-11-21T06:07:54.161Z,99643.09
2022-11-21T06:10:34.796Z,99655.61
2022-11-21T06:13:35.051Z,99680.15
2022-11-21T06:16:13.675Z,99682.00
2022-11-21T06:18:56.709Z,99682.20
2022-11-21T06:21:39.468Z,99685.99
2022-11-21T06:24:22.110Z,99685.10
2022-11-21T06:27:00.997Z,99680.61
2022-11-21T06:29:41.720Z,99678.74
2022-11-21T06:32:20.086Z,99680.07
2022-11-21T06:34:58.923Z,99667.98
2022-11-21T06:37:39.556Z,99670.26
2022-11-21T06:40:23.288Z,99670.54
2022-11-21T06:43:01.698Z,99670.73
2022-11-21T06:45:38.265Z,99664.23
2022-11-21T06:48:17.380Z,99660.98
2022-11-21T06:50:54.274Z,99649.73
2022-11-21T06:53:32.166Z,99642.88
2022-11-21T06:56:10.999Z,99637.88
2022-11-21T06:58:48.178Z,99632.62
2022-11-21T07:01:24.916Z,99628.64
2022-11-21T07:04:03.810Z,99628.94
2022-11-21T07:06:43.327Z,99630.19
2022-11-21T07:09:35.885Z,99636.63
2022-11-21T07:12:33.369Z,99631.62
2022-11-21T07:15:10.733Z,99640.63
2022-11-21T07:17:50.265Z,99634.15
2022-11-21T07:20:27.643Z,99631.64
2022-11-21T07:23:06.488Z,99632.79
2022-11-21T07:25:44.358Z,99638.07
2022-11-21T07:28:25.111Z,99639.77
2022-11-21T07:31:11.767Z,99636.61
2022-11-21T07:33:55.166Z,99641.73
2022-11-21T07:36:34.581Z,99637.38
2022-11-21T07:39:13.565Z,99641.58
2022-11-21T07:41:53.557Z,99639.35
2022-11-21T07:44:30.334Z,99638.02
2022-11-21T07:47:08.468Z,99634.05
2022-11-21T07:49:51.282Z,99632.90
2022-11-21T07:52:27.580Z,99628.45
2022-11-21T07:55:05.338Z,99635.10
2022-11-21T07:57:42.320Z,99643.41
2022-11-21T08:00:22.244Z,99648.55
2022-11-21T08:02:59.467Z,99645.60
2022-11-21T08:05:42.414Z,99644.35
2022-11-21T08:08:23.076Z,99646.55
2022-11-21T08:11:01.001Z,99654.67
2022-11-21T08:13:40.504Z,99653.90
2022-11-21T08:16:22.597Z,99664.15
2022-11-21T08:19:03.776Z,99664.98
2022-11-21T08:21:40.680Z,99658.05
2022-11-21T08:24:25.181Z,99663.56
2022-11-21T08:27:02.468Z,99666.02
2022-11-21T08:29:40.353Z,99665.78
2022-11-21T08:32:14.525Z,99657.16
2022-11-21T08:34:54.153Z,99656.53
2022-11-21T08:37:35.069Z,99655.52
2022-11-21T08:40:11.960Z,99655.77
2022-11-21T08:42:49.868Z,99656.66
2022-11-21T08:45:26.747Z,99660.55
2022-11-21T08:48:03.665Z,99664.65
2022-11-21T08:50:41.510Z,99663.39
2022-11-21T08:53:17.412Z,99666.42
2022-11-21T08:56:01.480Z,99671.13
2022-11-21T08:58:40.216Z,99670.52
2022-11-21T09:01:17.177Z,99680.20
2022-11-21T09:03:55.685Z,99684.78
2022-11-21T09:06:31.828Z,99697.78
2022-11-21T09:09:10.461Z,99709.86
2022-11-21T09:11:48.504Z,99715.07
2022-11-21T09:14:45.264Z,99712.86
2022-11-21T09:17:43.081Z,99717.67
2022-11-21T09:20:20.438Z,99716.62
2022-11-21T09:22:59.228Z,99711.16
2022-11-21T09:25:36.105Z,99714.23
2022-11-21T09:28:12.958Z,99726.02
2022-11-21T09:30:48.114Z,99721.39
2022-11-21T09:33:26.277Z,99729.50
2022-11-21T09:36:02.574Z,99729.67
2022-11-21T09:38:40.630Z,99718.75
2022-11-21T09:41:54.468Z,99726.40
2022-11-21T09:44:47.287Z,99742.46
2022-11-21T09:47:27.276Z,99764.11
2022-11-21T09:50:12.120Z,99769.86
2022-11-21T09:52:56.992Z,99770.64
2022-11-21T09:55:38.814Z,99770.84
2022-11-21T09:58:30.826Z,99777.05
2022-11-21T10:01:10.905Z,99795.33
2022-11-21T10:03:52.434Z,99797.70
2022-11-21T10:06:37.487Z,99787.44
2022-11-21T10:09:18.100Z,99789.50
2022-11-21T10:12:15.567Z,99790.41
2022-11-21T10:14:54.821Z,99777.69
2022-11-21T10:17:44.529Z,99776.73
2022-11-21T10:20:40.652Z,99771.55
2022-11-21T10:23:23.134Z,99765.86
2022-11-21T10:26:11.272Z,99765.65
2022-11-21T10:28:49.016Z,99755.29
2022-11-21T10:31:29.891Z,99751.44
2022-11-21T10:34:09.308Z,99746.70
2022-11-21T10:36:50.280Z,99746.98
2022-11-21T10:39:40.624Z,99749.80
2022-11-21T10:42:32.882Z,99752.49
2022-11-21T10:45:26.391Z,99755.25
2022-11-21T10:48:08.155Z,99752.41
2022-11-21T10:50:53.124Z,99759.72
2022-11-21T10:53:49.811Z,99751.45
2022-11-21T10:56:30.535Z,99760.86
2022-11-21T10:59:16.432Z,99765.75
2022-11-21T11:02:03.284Z,99769.98
2022-11-21T11:04:50.668Z,99785.50
2022-11-21T11:07:30.958Z,99796.48
2022-11-21T11:10:28.570Z,99811.41
2022-11-21T11:13:49.856Z,99823.19
2022-11-21T11:16:37.220Z,99817.27
2022-11-21T11:19:17.423Z,99816.17
2022-11-21T11:21:56.419Z,99815.09
2022-11-21T11:24:36.034Z,99808.49
2022-11-21T11:27:11.789Z,99820.18
2022-11-21T11:29:54.341Z,99819.33
2022-11-21T11:32:34.237Z,99807.08
2022-11-21T11:35:15.202Z,99800.38
2022-11-21T11:38:12.088Z,99795.21
2022-11-21T11:40:55.896Z,99788.45
2022-11-21T11:43:47.185Z,99780.34
2022-11-21T11:47:01.272Z,99764.23
2022-11-21T11:49:56.606Z,99764.95
2022-11-21T11:52:38.383Z,99773.26
2022-11-21T11:55:20.209Z,99779.37
2022-11-21T11:58:04.033Z,99786.51
2022-11-21T12:00:50.894Z,99800.76
2022-11-21T12:03:38.304Z,99813.44
2022-11-21T12:06:13.525Z,99816.65
2022-11-21T12:08:57.424Z,99817.76
2022-11-21T12:12:02.300Z,99817.23
2022-11-21T12:15:19.834Z,99815.69
2022-11-21T12:18:06.945Z,99819.84
2022-11-21T12:21:05.810Z,99821.45
2022-11-21T12:23:48.328Z,99819.60
2022-11-21T12:26:29.320Z,99821.63
2022-11-21T12:29:21.229Z,99823.00
2022-11-21T12:32:05.918Z,99818.12
2022-11-21T12:34:43.795Z,99822.72
2022-11-21T12:37:30.144Z,99826.73
2022-11-21T12:40:15.369Z,99828.77
2022-11-21T12:43:01.132Z,99825.12
2022-11-21T12:45:37.041Z,99825.17
2022-11-21T12:48:29.997Z,99825.18
2022-11-21T12:51:47.322Z,99833.23
2022-11-21T12:54:44.614Z,99823.52
2022-11-21T12:57:36.025Z,99807.57
2022-11-21T13:00:16.236Z,99809.92
2022-11-21T13:03:14.320Z,99813.99
2022-11-21T13:05:51.892Z,99812.65
2022-11-21T13:08:31.225Z,99817.55
2022-11-21T13:11:29.524Z,99827.65
2022-11-21T13:14:29.415Z,99834.35
2022-11-21T13:17:11.180Z,99837.95
2022-11-21T13:19:47.167Z,99844.92
2022-11-21T13:22:36.905Z,99842.58
2022-11-21T13:25:38.591Z,99846.98
2022-11-21T13:28:17.158Z,99848.90
2022-11-21T13:30:58.205Z,99854.81
2022-11-21T13:33:38.105Z,99853.85
2022-11-21T13:36:40.410Z,99847.37
2022-11-21T13:39:17.588Z,99845.48
2022-11-21T13:42:24.433Z,99849.02
2022-11-21T13:45:00.232Z,99852.43
2022-11-21T13:47:55.710Z,99856.73
2022-11-21T13:50:35.938Z,99858.92
2022-11-21T13:53:37.653Z,99855.50
2022-11-21T13:56:29.533Z,99858.88
2022-11-21T13:59:47.055Z,99861.52
2022-11-21T14:02:24.219Z,99859.59
2022-11-21T14:05:27.041Z,99863.77
2022-11-21T14:08:23.066Z,99865.56
2022-11-21T14:11:02.687Z,99868.47
2022-11-21T14:13:48.464Z,99873.02
2022-11-21T14:16:36.861Z,99876.95
2022-11-21T14:19:21.033Z,99880.56
2022-11-21T14:22:02.368Z,99877.89
2022-11-21T14:24:41.558Z,99874.33
2022-11-21T14:27:24.059Z,99877.77
2022-11-21T14:30:04.925Z,99876.92
2022-11-21T14:32:42.830Z,99876.85
2022-11-21T14:35:26.342Z,99880.63
2022-11-21T14:38:02.426Z,99881.20
2022-11-21T14:40:38.483Z,99867.09
2022-11-21T14:43:33.937Z,99862.69
2022-11-21T14:46:22.753Z,99865.84
2022-11-21T14:49:00.488Z,99868.43
2022-11-21T14:51:39.233Z,99874.56
2022-11-21T14:54:26.319Z,99883.15
2022-11-21T14:57:11.557Z,99881.30
2022-11-21T14:59:49.649Z,99878.39
2022-11-21T15:02:34.398Z,99883.44
2022-11-21T15:05:40.253Z,99887.59
2022-11-21T15:11:19.794Z,99909.91
2022-11-21T15:14:17.571Z,99913.77
2022-11-21T15:16:53.591Z,99914.23
2022-11-21T15:19:33.698Z,99915.23
2022-11-21T15:22:24.197Z,99911.54
2022-11-21T15:25:12.016Z,99904.98
2022-11-21T15:27:51.816Z,99899.63
2022-11-21T15:30:32.616Z,99900.36
2022-11-21T15:33:14.408Z,99902.77
2022-11-21T15:35:58.208Z,99908.05
2022-11-21T15:38:47.058Z,99906.40
2022-11-21T15:41:23.779Z,99910.52
2022-11-21T15:44:05.561Z,99913.36
2022-11-21T15:46:47.380Z,99906.66
2022-11-21T15:52:19.993Z,99908.79
2022-11-21T15:54:57.772Z,99911.95
2022-11-21T15:57:15.678Z,99900.71
2022-11-21T15:57:36.389Z,99913.10
2022-11-21T16:00:16.352Z,99913.67
2022-11-21T16:02:52.060Z,99918.83
2022-11-21T16:05:30.896Z,99925.70
2022-11-21T16:08:10.679Z,99927.66
2022-11-21T16:10:48.451Z,99927.07
2022-11-21T16:13:28.190Z,99931.15
2022-11-21T16:16:06.065Z,99936.23
2022-11-21T16:18:40.782Z,99936.02
2022-11-21T16:21:17.549Z,99933.71
2022-11-21T16:23:55.319Z,99929.48
2022-11-21T16:26:31.093Z,99931.98
2022-11-21T16:29:09.872Z,99933.48
2022-11-21T16:31:48.954Z,99930.45
2022-11-21T16:34:26.430Z,99927.94
2022-11-21T16:37:07.276Z,99932.29
2022-11-21T16:39:42.996Z,99938.20
2022-11-21T16:42:18.764Z,99949.14
2022-11-21T16:44:57.540Z,99963.23
2022-11-21T16:47:37.347Z,99969.56
2022-11-21T16:50:13.942Z,99966.65
2022-11-21T16:52:52.710Z,99969.11
2022-11-21T16:55:30.663Z,99964.92
2022-11-21T16:58:14.331Z,99971.38
2022-11-21T17:00:53.326Z,99967.31
2022-11-21T17:03:31.964Z,99966.52
2022-11-21T17:06:10.798Z,99968.38
2022-11-21T17:08:47.196Z,99968.09
2022-11-21T17:11:23.336Z,99973.01
2022-11-21T17:14:03.716Z,99976.45
2022-11-21T17:16:43.902Z,99975.14
2022-11-21T17:19:23.650Z,99980.07
2022-11-21T17:21:57.557Z,99983.15
2022-11-21T17:24:34.216Z,99985.90
2022-11-21T17:27:13.032Z,99993.00
2022-11-21T17:29:49.755Z,99997.73
2022-11-21T17:32:31.538Z,99994.42
2022-11-21T17:35:09.298Z,100000.99
2022-11-21T17:37:47.135Z,99999.23
2022-11-21T17:40:25.838Z,100001.74
2022-11-21T17:43:04.603Z,100001.20
2022-11-21T17:45:41.756Z,100014.41
2022-11-21T17:48:22.980Z,100018.83
2022-11-21T17:51:02.031Z,100017.89
2022-11-21T17:53:42.790Z,100023.58
2022-11-21T17:56:58.189Z,100032.35
2022-11-21T18:00:06.639Z,100031.10
2022-11-21T18:02:35.989Z,100029.91
2022-11-21T18:05:04.831Z,100026.73
2022-11-21T18:07:34.453Z,100027.79
2022-11-21T18:10:44.056Z,100033.02
2022-11-21T18:13:52.609Z,100042.34
2022-11-21T18:16:22.429Z,100046.70
2022-11-21T18:18:50.832Z,100054.85
2022-11-21T18:22:04.134Z,100058.27
2022-11-21T18:25:13.370Z,100066.81
2022-11-21T18:27:41.956Z,100062.85
2022-11-21T18:30:10.950Z,100058.14
2022-11-21T18:32:39.227Z,100055.06
2022-11-21T18:35:07.918Z,100057.17
2022-11-21T18:38:46.181Z,100060.70
2022-11-21T18:41:05.859Z,100062.81
2022-11-21T18:43:34.801Z,100062.63
2022-11-21T18:46:04.618Z,100066.77
2022-11-21T18:49:13.069Z,100065.82
2022-11-21T18:52:21.558Z,100072.95
2022-11-21T18:55:30.074Z,100082.79
2022-11-21T18:58:38.493Z,100085.05
2022-11-21T19:01:46.829Z,100093.63
2022-11-21T19:04:15.808Z,100102.20
2022-11-21T19:06:44.187Z,100102.12
2022-11-21T19:09:12.869Z,100105.80
2022-11-21T19:11:41.555Z,100111.15
2022-11-21T19:14:55.054Z,100112.41
2022-11-21T19:18:03.312Z,100111.78
2022-11-21T19:20:34.557Z,100115.89
2022-11-21T19:23:03.050Z,100119.61
2022-11-21T19:25:31.679Z,100128.15
2022-11-21T19:28:17.614Z,100128.90
2022-11-21T19:30:46.096Z,100128.39
2022-11-21T19:33:14.988Z,100127.98
2022-11-21T19:35:44.512Z,100131.70
2022-11-21T19:38:52.912Z,100138.02
2022-11-21T19:41:26.582Z,100142.84
2022-11-21T19:43:59.094Z,100141.82
2022-11-21T19:46:29.008Z,100147.61
2022-11-21T19:48:57.695Z,100149.43
2022-11-21T19:51:43.996Z,100153.57
2022-11-21T19:54:13.306Z,100156.17
2022-11-21T19:56:41.982Z,100155.39
2022-11-21T19:59:11.095Z,100151.05
2022-11-21T20:01:39.886Z,100149.67
2022-11-21T20:04:08.351Z,100152.08
2022-11-21T20:06:37.753Z,100157.75
2022-11-21T20:09:08.311Z,100158.17
2022-11-21T20:11:38.508Z,100164.29
2022-11-21T20:14:07.091Z,100165.98
2022-11-21T20:16:37.109Z,100171.70
2022-11-21T20:19:07.494Z,100174.64
2022-11-21T20:21:36.639Z,100182.37
2022-11-21T20:24:05.396Z,100188.16
2022-11-21T20:26:34.625Z,100188.34
2022-11-21T20:29:03.488Z,100184.41
2022-11-21T20:31:33.397Z,100179.80
2022-11-21T20:34:04.534Z,100179.77
2022-11-21T20:36:34.039Z,100174.17
2022-11-21T20:39:02.784Z,100172.48
2022-11-21T20:41:32.986Z,100169.36
2022-11-21T20:46:51.831Z,100176.58
2022-11-21T20:49:20.349Z,100179.67
2022-11-21T20:54:38.758Z,100185.68
2022-11-21T20:57:11.765Z,100196.00
2022-11-21T20:59:43.488Z,100195.98
2022-11-21T21:02:16.056Z,100193.42
2022-11-21T21:04:45.031Z,100190.84
2022-11-21T21:07:13.581Z,100193.20
2022-11-21T21:09:41.896Z,100191.77
2022-11-21T21:12:10.884Z,100194.04
2022-11-21T21:14:39.345Z,100188.48
2022-11-21T21:17:07.644Z,100191.40
2022-11-21T21:19:36.091Z,100192.23
2022-11-21T21:22:05.242Z,100192.33
2022-11-21T21:24:33.699Z,100197.40
2022-11-21T21:27:02.154Z,100198.84
2022-11-21T21:29:30.796Z,100199.20
2022-11-21T21:31:59.866Z,100199.61
2022-11-21T21:34:28.834Z,100194.06
2022-11-21T21:36:57.448Z,100194.87
2022-11-21T21:39:27.382Z,100188.89
2022-11-21T21:41:55.963Z,100190.35
2022-11-21T21:44:29.905Z,100188.53
2022-11-21T21:47:02.128Z,100188.30
2022-11-21T21:49:30.812Z,100194.09
2022-11-21T21:51:59.091Z,100196.92
2022-11-21T21:54:28.037Z,100201.75
2022-11-21T21:56:56.871Z,100210.05
2022-11-21T21:59:25.972Z,100214.67
2022-11-21T22:01:54.713Z,100217.16
2022-11-21T22:04:23.607Z,100217.84
2022-11-21T22:06:51.868Z,100215.23
2022-11-21T22:09:20.715Z,100216.71
2022-11-21T22:11:49.216Z,100217.89
2022-11-21T22:14:17.575Z,100221.48
2022-11-21T22:16:46.267Z,100218.66
2022-11-21T22:19:15.832Z,100221.48
2022-11-21T22:21:44.251Z,100223.73
2022-11-21T22:24:29.822Z,100225.16
2022-11-21T22:26:58.524Z,100230.48
2022-11-21T22:29:27.075Z,100241.41
2022-11-21T22:31:55.389Z,100238.52
2022-11-21T22:34:24.231Z,100236.71
2022-11-21T22:36:52.871Z,100230.63
2022-11-21T22:39:21.726Z,100229.27
2022-11-21T22:41:50.101Z,100231.52
2022-11-21T22:44:19.530Z,100235.08
2022-11-21T22:46:47.968Z,100234.31
2022-11-21T22:49:16.419Z,100236.34
2022-11-21T22:51:45.089Z,100238.81
2022-11-21T22:54:13.504Z,100237.88
2022-11-21T22:56:42.149Z,100239.00
2022-11-21T22:59:12.484Z,100233.98
2022-11-21T23:01:40.990Z,100231.86
2022-11-21T23:04:13.212Z,100228.44
2022-11-21T23:06:44.982Z,100227.64
2022-11-21T23:09:13.771Z,100227.91
2022-11-21T23:11:42.157Z,100225.46
2022-11-21T23:14:10.837Z,100223.05
2022-11-21T23:16:39.644Z,100218.16
2022-11-21T23:19:07.903Z,100217.76
2022-11-21T23:21:36.590Z,100227.33
2022-11-21T23:24:05.444Z,100233.33
2022-11-21T23:26:33.777Z,100243.98
2022-11-21T23:29:08.039Z,100253.11
2022-11-21T23:31:37.099Z,100255.33
2022-11-21T23:34:05.833Z,100256.77
2022-11-21T23:36:34.241Z,100256.33
2022-11-21T23:39:02.883Z,100248.86
2022-11-21T23:41:31.633Z,100245.42
2022-11-21T23:44:00.200Z,100245.95
2022-11-21T23:46:29.284Z,100248.80
2022-11-21T23:48:57.674Z,100255.48
2022-11-21T23:51:26.155Z,100266.95
2022-11-21T23:53:55.086Z,100267.81
2022-11-21T23:56:23.522Z,100267.23
2022-11-21T23:58:51.804Z,100269.55
